createdAt,value
2018-09-21T00:01:30.349Z,0.30
2018-09-21T00:04:07.520Z,0.27
2018-09-21T00:06:36.453Z,0.30
2018-09-21T00:09:07.593Z,0.20
2018-09-21T00:11:36.552Z,0.20
2018-09-21T00:14:05.473Z,0.23
2018-09-21T00:16:34.386Z,0.30
2018-09-21T00:19:03.362Z,0.30
2018-09-21T00:21:32.324Z,0.30
2018-09-21T00:24:01.224Z,0.20
2018-09-21T00:26:30.139Z,0.33
2018-09-21T00:28:59.038Z,0.30
2018-09-21T00:31:27.982Z,0.30
2018-09-21T00:33:56.921Z,0.30
2018-09-21T00:36:25.876Z,0.20
2018-09-21T00:38:54.865Z,0.30
2018-09-21T00:41:23.760Z,0.30
2018-09-21T00:43:52.672Z,0.20
2018-09-21T00:46:21.592Z,0.20
2018-09-21T00:48:50.540Z,0.20
2018-09-21T00:51:19.449Z,0.20
2018-09-21T00:53:48.352Z,0.10
2018-09-21T00:56:17.271Z,0.20
2018-09-21T00:58:46.241Z,0.30
2018-09-21T01:01:15.212Z,0.20
2018-09-21T01:03:44.097Z,0.30
2018-09-21T01:06:13.016Z,0.30
2018-09-21T01:08:41.961Z,0.33
2018-09-21T01:11:10.844Z,0.20
2018-09-21T01:13:39.775Z,0.20
2018-09-21T01:16:08.688Z,0.30
2018-09-21T01:18:37.622Z,0.23
2018-09-21T01:21:06.552Z,0.20
2018-09-21T01:23:35.488Z,0.20
2018-09-21T01:26:04.411Z,0.20
2018-09-21T01:28:33.437Z,0.20
2018-09-21T01:31:02.446Z,0.20
2018-09-21T01:33:31.359Z,0.27
2018-09-21T01:36:00.348Z,0.30
2018-09-21T01:38:29.300Z,0.20
2018-09-21T01:40:58.336Z,0.30
2018-09-21T01:43:27.286Z,0.20
2018-09-21T01:45:56.195Z,0.20
2018-09-21T01:48:25.136Z,0.20
2018-09-21T01:50:54.107Z,0.20
2018-09-21T01:53:23.021Z,0.20
2018-09-21T01:55:51.973Z,0.20
2018-09-21T01:58:20.909Z,0.10
2018-09-21T02:00:49.996Z,0.10
2018-09-21T02:03:18.927Z,0.27
2018-09-21T02:05:47.836Z,0.10
2018-09-21T02:08:16.752Z,0.17
2018-09-21T02:10:46.072Z,0.20
2018-09-21T02:13:14.972Z,0.30
2018-09-21T02:15:43.928Z,0.17
2018-09-21T02:18:12.854Z,0.23
2018-09-21T02:20:41.770Z,0.30
2018-09-21T02:23:10.704Z,0.20
2018-09-21T02:25:39.638Z,0.20
2018-09-21T02:28:08.547Z,0.20
2018-09-21T02:30:37.453Z,0.30
2018-09-21T02:33:06.368Z,0.20
2018-09-21T02:35:35.286Z,0.20
2018-09-21T02:38:04.260Z,0.20
2018-09-21T02:40:33.251Z,0.30
2018-09-21T02:43:02.194Z,0.20
2018-09-21T02:45:31.313Z,0.10
2018-09-21T02:48:00.213Z,0.20
2018-09-21T02:50:29.184Z,0.20
2018-09-21T02:52:58.120Z,0.30
2018-09-21T02:55:27.101Z,0.23
2018-09-21T02:57:56.053Z,0.20
2018-09-21T03:00:25.053Z,0.20
2018-09-21T03:02:53.909Z,0.20
2018-09-21T03:05:22.988Z,0.30
2018-09-21T03:07:51.977Z,0.13
2018-09-21T03:10:20.933Z,0.30
2018-09-21T03:12:49.957Z,0.20
2018-09-21T03:15:18.913Z,0.20
2018-09-21T03:17:47.844Z,0.27
2018-09-21T03:20:16.767Z,0.40
2018-09-21T03:22:45.679Z,0.20
2018-09-21T03:25:14.697Z,0.20
2018-09-21T03:27:43.665Z,0.30
2018-09-21T03:30:12.589Z,0.30
2018-09-21T03:32:41.509Z,0.13
2018-09-21T03:35:10.515Z,0.20
2018-09-21T03:37:39.400Z,0.20
2018-09-21T03:40:08.398Z,0.20
2018-09-21T03:42:37.320Z,0.20
2018-09-21T03:45:06.684Z,0.20
2018-09-21T03:47:35.591Z,0.20
2018-09-21T03:50:04.535Z,0.27
2018-09-21T03:52:33.436Z,0.20
2018-09-21T03:55:02.387Z,0.20
2018-09-21T03:57:31.320Z,0.20
2018-09-21T04:00:00.260Z,0.20
2018-09-21T04:02:29.212Z,0.27
2018-09-21T04:04:58.120Z,0.20
2018-09-21T04:07:27.058Z,0.13
2018-09-21T04:09:55.999Z,0.23
2018-09-21T04:12:24.907Z,0.20
2018-09-21T04:14:53.850Z,0.33
2018-09-21T04:17:22.768Z,0.20
2018-09-21T04:19:51.722Z,0.20
2018-09-21T04:22:20.669Z,0.23
2018-09-21T04:24:49.678Z,0.20
2018-09-21T04:27:18.580Z,0.40
2018-09-21T04:29:47.479Z,0.10
2018-09-21T04:32:16.513Z,0.10
2018-09-21T04:34:45.447Z,0.23
2018-09-21T04:37:14.455Z,0.30
2018-09-21T04:39:43.429Z,0.27
2018-09-21T04:42:12.350Z,0.20
2018-09-21T04:44:41.306Z,0.23
2018-09-21T04:47:10.237Z,0.20
2018-09-21T04:49:39.120Z,0.20
2018-09-21T04:52:08.108Z,0.30
2018-09-21T04:54:37.090Z,0.20
2018-09-21T04:57:05.971Z,0.20
2018-09-21T04:59:34.870Z,0.20
2018-09-21T05:02:03.799Z,0.30
2018-09-21T05:04:32.724Z,0.20
2018-09-21T05:07:01.678Z,0.10
2018-09-21T05:09:30.593Z,0.30
2018-09-21T05:11:59.542Z,0.30
2018-09-21T05:14:28.477Z,0.30
2018-09-21T05:16:57.401Z,0.20
2018-09-21T05:19:26.332Z,0.20
2018-09-21T05:21:55.328Z,0.30
2018-09-21T05:24:24.221Z,0.20
2018-09-21T05:26:53.156Z,0.30
2018-09-21T05:29:22.100Z,0.10
2018-09-21T05:31:51.001Z,0.30
2018-09-21T05:34:20.053Z,0.20
2018-09-21T05:36:48.968Z,0.20
2018-09-21T05:39:17.877Z,0.30
2018-09-21T05:41:46.818Z,0.30
2018-09-21T05:44:15.739Z,0.20
2018-09-21T05:46:44.735Z,0.20
2018-09-21T05:49:13.656Z,0.40
2018-09-21T05:51:43.391Z,0.33
2018-09-21T05:54:12.352Z,0.20
2018-09-21T05:56:41.882Z,0.20
2018-09-21T05:59:10.804Z,0.20
2018-09-21T06:01:40.091Z,0.20
2018-09-21T06:04:09.272Z,0.30
2018-09-21T06:06:38.253Z,0.40
2018-09-21T06:09:09.813Z,0.30
2018-09-21T06:11:39.666Z,0.30
2018-09-21T06:14:09.174Z,0.30
2018-09-21T06:16:38.065Z,0.33
2018-09-21T06:19:07.236Z,0.30
2018-09-21T06:21:36.440Z,0.30
2018-09-21T06:24:05.866Z,0.30
2018-09-21T06:26:34.853Z,0.30
2018-09-21T06:29:03.800Z,0.20
2018-09-21T06:31:32.818Z,0.30
2018-09-21T06:34:02.096Z,0.33
2018-09-21T06:36:31.030Z,0.30
2018-09-21T06:38:59.976Z,0.30
2018-09-21T06:41:28.927Z,0.30
2018-09-21T06:43:57.974Z,0.30
2018-09-21T06:46:26.960Z,0.30
2018-09-21T06:48:55.997Z,0.30
2018-09-21T06:51:27.035Z,0.30
2018-09-21T06:53:56.520Z,0.50
2018-09-21T06:56:25.558Z,0.37
2018-09-21T06:58:54.560Z,0.40
2018-09-21T07:01:23.490Z,0.40
2018-09-21T07:03:52.409Z,0.40
2018-09-21T07:06:21.378Z,0.43
2018-09-21T07:08:50.367Z,0.40
2018-09-21T07:11:20.025Z,0.30
2018-09-21T07:13:48.959Z,0.50
2018-09-21T07:16:17.927Z,0.30
2018-09-21T07:18:46.944Z,0.30
2018-09-21T07:21:15.927Z,0.43
2018-09-21T07:23:45.106Z,0.40
2018-09-21T07:26:14.124Z,0.40
2018-09-21T07:28:43.136Z,0.30
2018-09-21T07:31:12.092Z,0.40
2018-09-21T07:33:41.666Z,0.40
2018-09-21T07:36:11.383Z,0.40
2018-09-21T07:38:40.385Z,0.33
2018-09-21T07:41:09.364Z,0.40
2018-09-21T07:43:38.747Z,0.37
2018-09-21T07:46:08.044Z,0.50
2018-09-21T07:48:37.113Z,0.30
2018-09-21T07:51:06.521Z,0.50
2018-09-21T07:53:35.573Z,0.47
2018-09-21T07:56:04.559Z,0.40
2018-09-21T07:58:33.537Z,0.43
2018-09-21T08:01:03.126Z,0.40
2018-09-21T08:03:32.296Z,0.47
2018-09-21T08:06:01.288Z,0.40
2018-09-21T08:08:30.354Z,0.33
2018-09-21T08:10:59.291Z,0.40
2018-09-21T08:13:28.295Z,0.40
2018-09-21T08:15:57.324Z,0.40
2018-09-21T08:18:26.317Z,0.40
2018-09-21T08:20:55.336Z,0.60
2018-09-21T08:23:24.249Z,0.40
2018-09-21T08:25:53.282Z,0.50
2018-09-21T08:28:22.283Z,0.40
2018-09-21T08:30:51.225Z,0.70
2018-09-21T08:33:20.284Z,0.50
2018-09-21T08:35:49.163Z,0.50
2018-09-21T08:38:18.123Z,0.50
2018-09-21T08:40:47.101Z,0.40
2018-09-21T08:43:16.050Z,0.40
2018-09-21T08:45:45.027Z,0.50
2018-09-21T08:48:13.977Z,0.40
2018-09-21T08:50:42.890Z,0.40
2018-09-21T08:53:11.906Z,0.40
2018-09-21T08:55:40.819Z,0.40
2018-09-21T08:58:09.721Z,0.40
2018-09-21T09:00:38.658Z,0.40
2018-09-21T09:03:07.754Z,0.50
2018-09-21T09:05:36.624Z,0.40
2018-09-21T09:08:05.721Z,0.40
2018-09-21T09:10:34.654Z,0.50
2018-09-21T09:13:03.588Z,0.57
2018-09-21T09:15:32.511Z,0.40
2018-09-21T09:18:01.563Z,0.60
2018-09-21T09:20:30.467Z,0.50
2018-09-21T09:22:59.414Z,0.40
2018-09-21T09:25:28.382Z,0.60
2018-09-21T09:27:57.307Z,0.50
2018-09-21T09:30:26.245Z,0.50
2018-09-21T09:32:55.199Z,0.53
2018-09-21T09:35:24.109Z,0.37
2018-09-21T09:37:53.072Z,0.53
2018-09-21T09:40:22.199Z,0.50
2018-09-21T09:42:51.301Z,0.60
2018-09-21T09:45:20.227Z,0.50
2018-09-21T09:47:49.401Z,0.53
2018-09-21T09:50:18.374Z,0.50
2018-09-21T09:52:47.327Z,0.55
2018-09-21T09:55:16.358Z,0.60
2018-09-21T09:57:45.272Z,0.50
2018-09-21T10:00:14.441Z,0.50
2018-09-21T10:02:43.396Z,0.50
2018-09-21T10:05:12.382Z,0.50
2018-09-21T10:07:42.151Z,0.60
2018-09-21T10:10:12.220Z,0.60
2018-09-21T10:12:41.146Z,0.50
2018-09-21T10:15:10.172Z,0.55
2018-09-21T10:17:39.106Z,0.60
2018-09-21T10:20:08.053Z,0.60
2018-09-21T10:22:36.982Z,0.70
2018-09-21T10:25:05.910Z,0.60
2018-09-21T10:27:34.877Z,0.60
2018-09-21T10:30:03.818Z,0.65
2018-09-21T10:32:33.029Z,0.60
2018-09-21T10:35:01.964Z,0.70
2018-09-21T10:37:30.897Z,0.60
2018-09-21T10:40:00.001Z,0.62
2018-09-21T10:42:28.911Z,0.47
2018-09-21T10:44:57.806Z,0.50
2018-09-21T10:47:26.729Z,0.60
2018-09-21T10:49:55.664Z,0.50
2018-09-21T10:52:24.628Z,0.60
2018-09-21T10:54:53.579Z,0.60
2018-09-21T10:57:22.539Z,0.60
2018-09-21T10:59:58.135Z,0.68
2018-09-21T11:02:27.075Z,0.50
2018-09-21T11:04:56.518Z,0.65
2018-09-21T11:07:26.006Z,0.50
2018-09-21T11:09:54.934Z,0.50
2018-09-21T11:12:23.858Z,0.50
2018-09-21T11:14:52.826Z,0.62
2018-09-21T11:17:21.777Z,0.50
2018-09-21T11:19:50.688Z,0.60
2018-09-21T11:22:19.627Z,0.53
2018-09-21T11:24:48.587Z,0.45
2018-09-21T11:27:17.574Z,0.50
2018-09-21T11:29:46.522Z,0.50
2018-09-21T11:32:15.501Z,0.60
2018-09-21T11:34:44.533Z,0.60
2018-09-21T11:37:13.489Z,0.50
2018-09-21T11:39:42.500Z,0.50
2018-09-21T11:42:11.484Z,0.60
2018-09-21T11:44:40.655Z,0.50
2018-09-21T11:47:09.814Z,0.60
2018-09-21T11:49:38.682Z,0.50
2018-09-21T11:52:07.647Z,0.40
2018-09-21T11:54:36.669Z,0.50
2018-09-21T11:57:05.639Z,0.50
2018-09-21T11:59:34.616Z,0.57
2018-09-21T12:02:03.687Z,0.50
2018-09-21T12:04:32.612Z,0.50
2018-09-21T12:07:01.578Z,0.60
2018-09-21T12:09:30.556Z,0.55
2018-09-21T12:11:59.478Z,0.60
2018-09-21T12:14:28.449Z,0.55
2018-09-21T12:16:57.482Z,0.60
2018-09-21T12:19:26.433Z,0.60
2018-09-21T12:21:55.421Z,0.50
2018-09-21T12:24:24.414Z,0.50
2018-09-21T12:26:53.349Z,0.53
2018-09-21T12:29:22.518Z,0.53
2018-09-21T12:31:51.548Z,0.60
2018-09-21T12:34:20.643Z,0.50
2018-09-21T12:36:49.730Z,0.50
2018-09-21T12:39:18.735Z,0.70
2018-09-21T12:41:47.672Z,0.60
2018-09-21T12:44:17.512Z,0.50
2018-09-21T12:46:46.501Z,0.57
2018-09-21T12:49:15.497Z,0.50
2018-09-21T12:51:44.483Z,0.70
2018-09-21T12:54:13.462Z,0.57
2018-09-21T12:56:42.409Z,0.70
2018-09-21T12:59:11.360Z,0.65
2018-09-21T13:01:40.331Z,0.80
2018-09-21T13:04:09.323Z,0.50
2018-09-21T13:06:38.298Z,0.60
2018-09-21T13:09:07.696Z,0.60
2018-09-21T13:11:36.696Z,0.50
2018-09-21T13:14:05.628Z,0.50
2018-09-21T13:16:34.583Z,0.60
2018-09-21T13:19:03.524Z,0.60
2018-09-21T13:21:32.578Z,0.60
2018-09-21T13:24:01.571Z,0.50
2018-09-21T13:26:30.620Z,0.70
2018-09-21T13:28:59.967Z,0.60
2018-09-21T13:31:28.943Z,0.60
2018-09-21T13:33:57.876Z,0.57
2018-09-21T13:36:26.849Z,0.62
2018-09-21T13:38:55.845Z,0.60
2018-09-21T13:41:24.792Z,0.57
2018-09-21T13:43:53.825Z,0.50
2018-09-21T13:46:22.841Z,0.60
2018-09-21T13:48:51.881Z,0.50
2018-09-21T13:51:20.978Z,0.50
2018-09-21T13:53:49.924Z,0.50
2018-09-21T13:56:18.934Z,0.60
2018-09-21T13:58:48.071Z,0.50
2018-09-21T14:01:17.022Z,0.60
2018-09-21T14:03:45.984Z,0.50
2018-09-21T14:06:14.976Z,0.60
2018-09-21T14:08:43.929Z,0.57
2018-09-21T14:11:12.965Z,0.55
2018-09-21T14:13:41.903Z,0.50
2018-09-21T14:16:10.851Z,0.53
2018-09-21T14:18:40.939Z,0.40
2018-09-21T14:21:09.994Z,0.50
2018-09-21T14:23:38.952Z,0.40
2018-09-21T14:26:07.893Z,0.60
2018-09-21T14:28:36.896Z,0.40
2018-09-21T14:31:05.932Z,0.40
2018-09-21T14:33:34.920Z,0.40
2018-09-21T14:36:03.910Z,0.60
2018-09-21T14:38:32.850Z,0.43
2018-09-21T14:41:01.874Z,0.40
2018-09-21T14:43:30.811Z,0.40
2018-09-21T14:45:59.785Z,0.42
2018-09-21T14:48:28.781Z,0.50
2018-09-21T14:50:57.766Z,0.40
2018-09-21T14:53:26.686Z,0.60
2018-09-21T14:55:55.640Z,0.47
2018-09-21T14:58:24.569Z,0.40
2018-09-21T15:00:53.513Z,0.37
2018-09-21T15:03:22.478Z,0.40
2018-09-21T15:05:51.446Z,0.40
2018-09-21T15:08:20.461Z,0.50
2018-09-21T15:10:49.457Z,0.40
2018-09-21T15:13:18.397Z,0.30
2018-09-21T15:15:47.541Z,0.50
2018-09-21T15:18:16.484Z,0.50
2018-09-21T15:20:45.505Z,0.40
2018-09-21T15:23:14.586Z,0.50
2018-09-21T15:25:43.661Z,0.40
2018-09-21T15:28:12.895Z,0.60
2018-09-21T15:30:41.910Z,0.40
2018-09-21T15:33:10.869Z,0.47
2018-09-21T15:35:39.851Z,0.40
2018-09-21T15:38:09.160Z,0.40
2018-09-21T15:40:38.210Z,0.30
2018-09-21T15:43:07.695Z,0.50
2018-09-21T15:45:36.568Z,0.30
2018-09-21T15:48:05.538Z,0.50
2018-09-21T15:50:34.528Z,0.30
2018-09-21T15:53:03.569Z,0.27
2018-09-21T15:55:32.577Z,0.20
2018-09-21T15:58:01.588Z,0.27
2018-09-21T16:00:30.684Z,0.30
2018-09-21T16:02:59.658Z,0.20
2018-09-21T16:05:28.619Z,0.20
2018-09-21T16:07:57.726Z,0.30
2018-09-21T16:10:26.715Z,0.30
2018-09-21T16:12:55.709Z,0.40
2018-09-21T16:15:24.721Z,0.30
2018-09-21T16:17:53.811Z,0.40
2018-09-21T16:20:25.707Z,0.30
2018-09-21T16:22:54.652Z,0.30
2018-09-21T16:25:23.667Z,0.30
2018-09-21T16:27:52.667Z,0.40
2018-09-21T16:30:21.670Z,0.20
2018-09-21T16:32:50.707Z,0.70
2018-09-21T16:35:19.637Z,0.80
2018-09-21T16:37:48.581Z,1.00
2018-09-21T16:40:17.782Z,1.30
2018-09-21T16:42:46.772Z,0.80
2018-09-21T16:45:15.744Z,1.07
2018-09-21T16:47:44.719Z,0.83
2018-09-21T16:50:13.679Z,0.90
2018-09-21T16:52:42.731Z,0.87
2018-09-21T16:55:11.670Z,0.77
2018-09-21T16:57:40.708Z,0.60
2018-09-21T17:00:09.773Z,0.77
2018-09-21T17:02:38.751Z,0.57
2018-09-21T17:05:07.691Z,0.30
2018-09-21T17:07:36.638Z,0.57
2018-09-21T17:10:05.701Z,0.40
2018-09-21T17:12:34.681Z,0.40
2018-09-21T17:15:03.643Z,0.40
2018-09-21T17:17:32.647Z,0.40
2018-09-21T17:20:01.690Z,0.40
2018-09-21T17:22:30.636Z,0.20
2018-09-21T17:24:59.631Z,0.20
2018-09-21T17:27:28.631Z,0.30
2018-09-21T17:29:57.682Z,0.30
2018-09-21T17:32:26.676Z,0.30
2018-09-21T17:34:55.634Z,0.30
2018-09-21T17:37:24.679Z,0.20
2018-09-21T17:39:53.706Z,0.30
2018-09-21T17:42:22.798Z,0.30
2018-09-21T17:44:51.886Z,0.30
2018-09-21T17:47:20.898Z,0.27
2018-09-21T17:49:49.870Z,0.40
2018-09-21T17:52:18.848Z,0.33
2018-09-21T17:54:47.769Z,0.30
2018-09-21T17:57:16.794Z,0.30
2018-09-21T17:59:45.768Z,0.10
2018-09-21T18:02:14.766Z,0.20
2018-09-21T18:04:43.724Z,0.30
2018-09-21T18:07:18.925Z,0.20
2018-09-21T18:09:48.996Z,0.27
2018-09-21T18:12:18.024Z,0.30
2018-09-21T18:14:46.980Z,0.20
2018-09-21T18:17:15.993Z,0.20
2018-09-21T18:19:45.011Z,0.40
2018-09-21T18:22:14.009Z,0.20
2018-09-21T18:24:43.100Z,0.20
2018-09-21T18:27:12.093Z,0.20
2018-09-21T18:29:41.083Z,0.30
2018-09-21T18:32:10.038Z,0.27
2018-09-21T18:34:39.026Z,0.23
2018-09-21T18:37:08.055Z,0.20
2018-09-21T18:39:37.193Z,0.20
2018-09-21T18:42:06.172Z,0.10
2018-09-21T18:44:35.262Z,0.30
2018-09-21T18:47:04.184Z,0.20
2018-09-21T18:49:33.112Z,0.20
2018-09-21T18:52:02.703Z,0.10
2018-09-21T18:54:31.686Z,0.10
2018-09-21T18:57:00.633Z,0.20
2018-09-21T18:59:29.825Z,0.27
2018-09-21T19:01:58.782Z,0.37
2018-09-21T19:04:27.915Z,0.17
2018-09-21T19:06:56.921Z,0.23
2018-09-21T19:09:25.873Z,0.20
2018-09-21T19:11:54.922Z,0.30
2018-09-21T19:14:23.933Z,0.30
2018-09-21T19:16:52.981Z,0.37
2018-09-21T19:19:21.956Z,0.33
2018-09-21T19:21:50.950Z,0.37
2018-09-21T19:24:20.067Z,0.30
2018-09-21T19:26:48.998Z,0.30
2018-09-21T19:29:17.966Z,0.30
2018-09-21T19:31:46.952Z,0.30
2018-09-21T19:34:16.035Z,0.20
2018-09-21T19:36:45.018Z,0.30
2018-09-21T19:39:14.023Z,0.20
2018-09-21T19:41:43.053Z,0.27
2018-09-21T19:44:12.176Z,0.30
2018-09-21T19:46:41.254Z,0.30
2018-09-21T19:49:10.264Z,0.20
2018-09-21T19:51:39.210Z,0.20
2018-09-21T19:54:08.254Z,0.23
2018-09-21T19:56:37.167Z,0.20
2018-09-21T19:59:06.441Z,0.20
2018-09-21T20:01:35.416Z,0.30
2018-09-21T20:04:04.403Z,0.20
2018-09-21T20:06:33.575Z,0.20
2018-09-21T20:09:02.581Z,0.37
2018-09-21T20:11:31.879Z,0.20
2018-09-21T20:14:00.858Z,0.27
2018-09-21T20:16:29.865Z,0.40
2018-09-21T20:18:59.070Z,0.20
2018-09-21T20:21:28.099Z,0.20
2018-09-21T20:23:57.072Z,0.30
2018-09-21T20:26:26.083Z,0.20
2018-09-21T20:28:55.046Z,0.30
2018-09-21T20:31:29.377Z,0.20
2018-09-21T20:33:58.402Z,0.30
2018-09-21T20:36:27.378Z,0.20
2018-09-21T20:38:56.473Z,0.20
2018-09-21T20:41:25.492Z,0.20
2018-09-21T20:43:54.494Z,0.30
2018-09-21T20:46:23.460Z,0.33
2018-09-21T20:48:52.434Z,0.20
2018-09-21T20:51:21.735Z,0.20
2018-09-21T20:53:50.724Z,0.33
2018-09-21T20:56:19.789Z,0.20
2018-09-21T20:58:48.851Z,0.30
2018-09-21T21:01:17.868Z,0.20
2018-09-21T21:03:46.804Z,0.20
2018-09-21T21:06:15.765Z,0.20
2018-09-21T21:08:44.737Z,0.20
2018-09-21T21:11:13.862Z,0.40
2018-09-21T21:13:42.986Z,0.20
2018-09-21T21:16:12.920Z,0.30
2018-09-21T21:18:41.945Z,0.40
2018-09-21T21:21:12.009Z,0.40
2018-09-21T21:23:41.037Z,0.20
2018-09-21T21:26:10.237Z,0.20
2018-09-21T21:28:39.565Z,0.30
2018-09-21T21:31:08.586Z,0.30
2018-09-21T21:33:37.579Z,0.30
2018-09-21T21:36:07.049Z,0.10
2018-09-21T21:38:36.508Z,0.30
2018-09-21T21:41:06.014Z,0.23
2018-09-21T21:43:35.306Z,0.10
2018-09-21T21:46:04.395Z,0.30
2018-09-21T21:48:33.424Z,0.47
2018-09-21T21:51:02.977Z,0.30
2018-09-21T21:53:31.924Z,0.30
2018-09-21T21:56:02.919Z,0.20
2018-09-21T21:58:31.889Z,0.30
2018-09-21T22:01:06.319Z,0.20
2018-09-21T22:03:35.400Z,0.30
2018-09-21T22:06:04.315Z,0.20
2018-09-21T22:08:33.839Z,0.30
2018-09-21T22:11:06.999Z,0.30
2018-09-21T22:13:41.268Z,0.20
2018-09-21T22:16:10.308Z,0.20
2018-09-21T22:18:39.252Z,0.30
2018-09-21T22:21:08.186Z,0.20
2018-09-21T22:23:37.113Z,0.30
2018-09-21T22:26:06.536Z,0.23
2018-09-21T22:28:35.477Z,0.30
2018-09-21T22:31:04.538Z,0.30
2018-09-21T22:33:33.480Z,0.20
2018-09-21T22:36:02.476Z,0.40
2018-09-21T22:38:31.366Z,0.27
2018-09-21T22:41:00.389Z,0.23
2018-09-21T22:43:29.318Z,0.30
2018-09-21T22:45:58.274Z,0.30
2018-09-21T22:48:27.266Z,0.30
2018-09-21T22:50:56.221Z,0.30
2018-09-21T22:53:25.164Z,0.23
2018-09-21T22:55:54.129Z,0.20
2018-09-21T22:58:23.250Z,0.27
2018-09-21T23:00:52.198Z,0.30
2018-09-21T23:03:21.209Z,0.23
2018-09-21T23:05:50.215Z,0.37
2018-09-21T23:08:19.172Z,0.40
2018-09-21T23:10:48.165Z,0.30
2018-09-21T23:13:17.110Z,0.20
2018-09-21T23:15:46.095Z,0.30
2018-09-21T23:18:15.150Z,0.10
2018-09-21T23:20:44.124Z,0.30
2018-09-21T23:23:13.053Z,0.30
2018-09-21T23:25:42.010Z,0.30
2018-09-21T23:28:11.343Z,0.40
2018-09-21T23:30:40.848Z,0.30
2018-09-21T23:33:09.844Z,0.20
2018-09-21T23:35:38.810Z,0.30
2018-09-21T23:38:07.771Z,0.30
2018-09-21T23:40:36.710Z,0.20
2018-09-21T23:43:05.715Z,0.20
2018-09-21T23:45:34.670Z,0.40
2018-09-21T23:48:03.583Z,0.20
2018-09-21T23:50:32.526Z,0.20
2018-09-21T23:53:01.458Z,0.30
2018-09-21T23:55:30.399Z,0.20
2018-09-21T23:57:59.329Z,0.40
